createdAt,value
2022-08-27T00:00:25.767Z,999.5
2022-08-27T00:02:25.866Z,999.5
2022-08-27T00:04:25.841Z,999.5
2022-08-27T00:06:25.775Z,999.6
2022-08-27T00:08:26.024Z,999.6
2022-08-27T00:11:25.750Z,999.5
2022-08-27T00:13:25.788Z,999.5
2022-08-27T00:16:25.786Z,999.6
2022-08-27T00:18:25.786Z,999.6
2022-08-27T00:20:25.787Z,999.5
2022-08-27T00:23:25.787Z,999.5
2022-08-27T00:25:25.816Z,999.5
2022-08-27T00:28:25.817Z,999.5
2022-08-27T00:30:25.836Z,999.5
2022-08-27T00:33:25.788Z,999.4
2022-08-27T00:35:25.770Z,999.5
2022-08-27T00:38:25.848Z,999.4
2022-08-27T00:41:25.780Z,999.4
2022-08-27T00:44:25.772Z,999.4
2022-08-27T00:47:25.792Z,999.4
2022-08-27T00:49:25.792Z,999.5
2022-08-27T00:52:25.796Z,999.5
2022-08-27T00:54:25.827Z,999.4
2022-08-27T00:57:25.809Z,999.4
2022-08-27T00:59:25.809Z,999.5
2022-08-27T01:01:25.870Z,999.5
2022-08-27T01:05:25.848Z,999.4
2022-08-27T01:07:25.816Z,999.5
2022-08-27T01:09:36.092Z,999.5
2022-08-27T01:12:25.807Z,999.5
2022-08-27T01:15:25.870Z,999.4
2022-08-27T01:18:25.763Z,999.4
2022-08-27T01:20:25.786Z,999.4
2022-08-27T01:23:25.812Z,999.3
2022-08-27T01:25:25.836Z,999.3
2022-08-27T01:28:26.908Z,999.3
2022-08-27T01:30:26.264Z,999.3
2022-08-27T01:33:25.815Z,999.3
2022-08-27T01:35:25.903Z,999.3
2022-08-27T01:38:30.527Z,999.3
2022-08-27T01:40:26.025Z,999.3
2022-08-27T01:43:25.807Z,999.3
2022-08-27T01:46:25.871Z,999.3
2022-08-27T01:48:25.800Z,999.3
2022-08-27T01:51:25.832Z,999.2
2022-08-27T01:54:25.783Z,999.3
2022-08-27T01:56:25.809Z,999.2
2022-08-27T01:59:25.834Z,999.3
2022-08-27T02:02:25.860Z,999.2
2022-08-27T02:04:25.807Z,999.1
2022-08-27T02:07:25.810Z,999.1
2022-08-27T02:09:25.841Z,999.1
2022-08-27T02:11:25.869Z,999.1
2022-08-27T02:14:25.783Z,999.1
2022-08-27T02:16:25.871Z,999.1
2022-08-27T02:19:25.826Z,999.1
2022-08-27T02:21:25.814Z,999
2022-08-27T02:23:25.870Z,999
2022-08-27T02:26:25.788Z,999
2022-08-27T02:28:25.843Z,999
2022-08-27T02:31:25.911Z,999
2022-08-27T02:34:25.816Z,999
2022-08-27T02:36:25.824Z,999.1
2022-08-27T02:39:25.857Z,999
2022-08-27T02:41:25.851Z,999.1
2022-08-27T02:44:25.813Z,999.1
2022-08-27T02:46:25.890Z,999.1
2022-08-27T02:49:25.854Z,999.1
2022-08-27T02:51:25.868Z,999.1
2022-08-27T02:54:26.201Z,999
2022-08-27T02:57:25.863Z,999
2022-08-27T02:59:26.267Z,999
2022-08-27T03:02:25.952Z,999.1
2022-08-27T03:04:25.842Z,999
2022-08-27T03:07:25.858Z,999
2022-08-27T03:09:25.866Z,999
2022-08-27T03:11:25.866Z,999
2022-08-27T03:14:25.829Z,998.9
2022-08-27T03:16:25.972Z,998.9
2022-08-27T03:19:25.855Z,999
2022-08-27T03:21:25.865Z,999
2022-08-27T03:24:25.855Z,999
2022-08-27T03:27:25.858Z,999
2022-08-27T03:29:25.885Z,999
2022-08-27T03:32:25.819Z,999
2022-08-27T03:34:25.849Z,999
2022-08-27T03:37:25.871Z,999
2022-08-27T03:39:25.889Z,999
2022-08-27T03:42:25.818Z,999
2022-08-27T03:44:25.853Z,999
2022-08-27T03:46:25.867Z,999
2022-08-27T03:49:25.884Z,999.1
2022-08-27T03:52:25.838Z,999
2022-08-27T03:54:25.855Z,999
2022-08-27T03:57:25.873Z,999
2022-08-27T04:00:25.853Z,999
2022-08-27T04:02:25.861Z,999
2022-08-27T04:04:25.858Z,998.9
2022-08-27T04:07:25.852Z,998.9
2022-08-27T04:09:25.865Z,998.9
2022-08-27T04:11:26.015Z,999
2022-08-27T04:14:26.567Z,998.9
2022-08-27T04:16:25.944Z,998.9
2022-08-27T04:18:25.848Z,999
2022-08-27T04:20:34.882Z,999
2022-08-27T04:23:25.855Z,999
2022-08-27T04:26:25.822Z,999
2022-08-27T04:28:25.861Z,999
2022-08-27T04:30:25.858Z,999
2022-08-27T04:33:25.833Z,999
2022-08-27T04:35:25.877Z,999.1
2022-08-27T04:38:25.860Z,999.1
2022-08-27T04:41:25.823Z,999.1
2022-08-27T04:43:25.876Z,999.1
2022-08-27T04:46:25.932Z,999.2
2022-08-27T04:48:25.866Z,999.2
2022-08-27T04:51:25.836Z,999.2
2022-08-27T04:54:32.143Z,999.2
2022-08-27T04:56:25.873Z,999.2
2022-08-27T04:59:25.879Z,999.2
2022-08-27T05:01:25.995Z,999.2
2022-08-27T05:04:26.313Z,999.2
2022-08-27T05:07:25.869Z,999.3
2022-08-27T05:09:26.519Z,999.2
2022-08-27T05:12:25.867Z,999.3
2022-08-27T05:15:25.879Z,999.4
2022-08-27T05:18:25.877Z,999.3
2022-08-27T05:21:26.278Z,999.3
2022-08-27T05:24:25.884Z,999.2
2022-08-27T05:27:25.883Z,999.2
2022-08-27T05:29:25.895Z,999.2
2022-08-27T05:31:25.988Z,999.3
2022-08-27T05:33:25.905Z,999.2
2022-08-27T05:36:25.939Z,999.3
2022-08-27T05:39:25.909Z,999.3
2022-08-27T05:41:30.227Z,999.3
2022-08-27T05:44:41.490Z,999.3
2022-08-27T05:47:25.904Z,999.3
2022-08-27T05:50:25.903Z,999.3
2022-08-27T05:53:25.862Z,999.3
2022-08-27T05:55:25.925Z,999.3
2022-08-27T05:57:26.183Z,999.4
2022-08-27T06:00:25.895Z,999.4
2022-08-27T06:02:25.988Z,999.5
2022-08-27T06:04:25.920Z,999.5
2022-08-27T06:07:25.872Z,999.5
2022-08-27T06:09:25.930Z,999.5
2022-08-27T06:12:27.021Z,999.5
2022-08-27T06:15:25.899Z,999.4
2022-08-27T06:17:25.916Z,999.5
2022-08-27T06:20:25.900Z,999.5
2022-08-27T06:23:27.843Z,999.5
2022-08-27T06:25:25.893Z,999.5
2022-08-27T06:27:25.924Z,999.5
2022-08-27T06:30:25.943Z,999.5
2022-08-27T06:32:25.897Z,999.5
2022-08-27T06:34:25.958Z,999.5
2022-08-27T06:37:25.889Z,999.5
2022-08-27T06:39:25.907Z,999.5
2022-08-27T06:41:25.876Z,999.5
2022-08-27T06:44:25.926Z,999.5
2022-08-27T06:47:25.931Z,999.5
2022-08-27T06:50:27.398Z,999.5
2022-08-27T06:52:25.944Z,999.5
2022-08-27T06:55:25.899Z,999.5
2022-08-27T06:58:25.905Z,999.6
2022-08-27T07:00:25.967Z,999.6
2022-08-27T07:03:25.916Z,999.6
2022-08-27T07:06:25.915Z,999.7
2022-08-27T07:09:25.909Z,999.7
2022-08-27T07:12:30.345Z,999.7
2022-08-27T07:15:26.013Z,999.7
2022-08-27T07:18:27.122Z,999.8
2022-08-27T07:20:25.900Z,999.8
2022-08-27T07:23:25.918Z,999.8
2022-08-27T07:26:25.908Z,999.9
2022-08-27T07:29:28.278Z,999.9
2022-08-27T07:32:30.476Z,999.9
2022-08-27T07:34:25.918Z,999.9
2022-08-27T07:36:25.927Z,999.9
2022-08-27T07:38:25.924Z,1000
2022-08-27T07:40:33.186Z,999.9
2022-08-27T07:43:25.934Z,1000
2022-08-27T07:45:25.938Z,1000
2022-08-27T07:47:25.946Z,1000
2022-08-27T07:50:25.913Z,1000.1
2022-08-27T07:52:26.637Z,1000.1
2022-08-27T07:55:33.075Z,1000
2022-08-27T07:58:25.919Z,1000.1
2022-08-27T08:00:26.003Z,1000.1
2022-08-27T08:03:25.911Z,1000.1
2022-08-27T08:05:25.946Z,1000.1
2022-08-27T08:08:25.990Z,1000.1
2022-08-27T08:11:25.920Z,1000.1
2022-08-27T08:13:25.989Z,1000.1
2022-08-27T08:16:29.707Z,1000.1
2022-08-27T08:19:25.951Z,1000.2
2022-08-27T08:22:25.937Z,1000.1
2022-08-27T08:24:25.927Z,1000.1
2022-08-27T08:27:25.970Z,1000.1
2022-08-27T08:30:25.917Z,1000.1
2022-08-27T08:32:25.955Z,1000.1
2022-08-27T08:35:25.945Z,1000.2
2022-08-27T08:37:25.972Z,1000.2
2022-08-27T08:39:25.974Z,1000.2
2022-08-27T08:42:25.943Z,1000.3
2022-08-27T08:44:25.960Z,1000.2
2022-08-27T08:46:25.995Z,1000.2
2022-08-27T08:48:25.973Z,1000.2
2022-08-27T08:51:25.968Z,1000.2
2022-08-27T08:53:26.102Z,1000.2
2022-08-27T08:56:25.958Z,1000.3
2022-08-27T08:58:25.963Z,1000.3
2022-08-27T09:01:26.032Z,1000.3
2022-08-27T09:03:26.026Z,1000.3
2022-08-27T09:06:25.946Z,1000.3
2022-08-27T09:08:34.401Z,1000.3
2022-08-27T09:11:25.965Z,1000.3
2022-08-27T09:14:25.943Z,1000.2
2022-08-27T09:16:26.012Z,1000.3
2022-08-27T09:19:25.932Z,1000.3
2022-08-27T09:21:27.575Z,1000.4
2022-08-27T09:24:25.961Z,1000.3
2022-08-27T09:26:25.995Z,1000.4
2022-08-27T09:29:26.497Z,1000.4
2022-08-27T09:32:25.957Z,1000.4
2022-08-27T09:34:25.984Z,1000.5
2022-08-27T09:37:33.796Z,1000.4
2022-08-27T09:39:25.985Z,1000.4
2022-08-27T09:42:26.001Z,1000.4
2022-08-27T09:44:25.980Z,1000.4
2022-08-27T09:46:26.912Z,1000.4
2022-08-27T09:48:26.287Z,1000.4
2022-08-27T09:51:25.975Z,1000.4
2022-08-27T09:53:26.190Z,1000.4
2022-08-27T09:56:26.050Z,1000.5
2022-08-27T09:59:25.986Z,1000.3
2022-08-27T10:02:25.967Z,1000.4
2022-08-27T10:04:26.042Z,1000.3
2022-08-27T10:07:25.947Z,1000.3
2022-08-27T10:09:25.996Z,1000.3
2022-08-27T10:11:26.142Z,1000.3
2022-08-27T10:14:25.996Z,1000.2
2022-08-27T10:16:26.021Z,1000.2
2022-08-27T10:18:26.001Z,1000.3
2022-08-27T10:21:25.982Z,1000.3
2022-08-27T10:23:26.138Z,1000.3
2022-08-27T10:26:26.811Z,1000.4
2022-08-27T10:29:25.994Z,1000.5
2022-08-27T10:31:26.165Z,1000.5
2022-08-27T10:34:25.962Z,1000.5
2022-08-27T10:36:26.352Z,1000.5
2022-08-27T10:38:25.969Z,1000.5
2022-08-27T10:40:26.111Z,1000.4
2022-08-27T10:43:26.001Z,1000.5
2022-08-27T10:45:31.190Z,1000.4
2022-08-27T10:47:26.024Z,1000.4
2022-08-27T10:49:26.032Z,1000.5
2022-08-27T10:53:31.079Z,1000.5
2022-08-27T10:54:25.983Z,1000.4
2022-08-27T10:57:40.137Z,1000.4
2022-08-27T10:59:26.010Z,1000.4
2022-08-27T11:02:26.066Z,1000.4
2022-08-27T11:05:26.008Z,1000.4
2022-08-27T11:07:26.037Z,1000.4
2022-08-27T11:10:26.003Z,1000.4
2022-08-27T11:13:26.000Z,1000.4
2022-08-27T11:16:26.059Z,1000.4
2022-08-27T11:18:25.997Z,1000.3
2022-08-27T11:21:25.969Z,1000.4
2022-08-27T11:23:26.012Z,1000.3
2022-08-27T11:26:26.001Z,1000.3
2022-08-27T11:28:29.869Z,1000.4
2022-08-27T11:31:30.787Z,1000.4
2022-08-27T11:33:26.003Z,1000.4
2022-08-27T11:35:26.041Z,1000.4
2022-08-27T11:37:26.041Z,1000.3
2022-08-27T11:40:26.059Z,1000.3
2022-08-27T11:43:25.999Z,1000.3
2022-08-27T11:46:26.055Z,1000.3
2022-08-27T11:49:27.073Z,1000.3
2022-08-27T11:51:26.010Z,1000.3
2022-08-27T11:53:28.395Z,1000.3
2022-08-27T11:56:26.041Z,1000.3
2022-08-27T11:58:26.013Z,1000.2
2022-08-27T12:01:26.006Z,1000.2
2022-08-27T12:03:26.107Z,1000.2
2022-08-27T12:06:26.024Z,1000.2
2022-08-27T12:09:26.058Z,1000.2
2022-08-27T12:11:26.057Z,1000.2
2022-08-27T12:14:26.020Z,1000.2
2022-08-27T12:16:26.161Z,1000.2
2022-08-27T12:19:26.041Z,1000.2
2022-08-27T12:21:26.041Z,1000.2
2022-08-27T12:24:26.048Z,1000.1
2022-08-27T12:26:26.259Z,1000.1
2022-08-27T12:29:27.853Z,1000
2022-08-27T12:31:58.320Z,1000
2022-08-27T12:33:26.061Z,1000
2022-08-27T12:36:27.789Z,999.9
2022-08-27T12:38:26.048Z,999.9
2022-08-27T12:40:26.154Z,999.9
2022-08-27T12:43:26.074Z,999.9
2022-08-27T12:45:26.059Z,999.9
2022-08-27T12:48:26.050Z,999.8
2022-08-27T12:51:26.035Z,999.8
2022-08-27T12:54:29.070Z,999.8
2022-08-27T12:57:26.067Z,999.8
2022-08-27T13:00:26.488Z,999.8
2022-08-27T13:02:26.139Z,999.7
2022-08-27T13:05:26.052Z,999.7
2022-08-27T13:08:26.020Z,999.7
2022-08-27T13:11:26.044Z,999.7
2022-08-27T13:13:26.026Z,999.7
2022-08-27T13:15:26.084Z,999.7
2022-08-27T13:18:29.638Z,999.6
2022-08-27T13:20:26.060Z,999.6
2022-08-27T13:23:26.062Z,999.6
2022-08-27T13:26:26.015Z,999.5
2022-08-27T13:28:26.067Z,999.5
2022-08-27T13:31:26.112Z,999.5
2022-08-27T13:33:26.100Z,999.5
2022-08-27T13:36:26.093Z,999.5
2022-08-27T13:39:26.075Z,999.5
2022-08-27T13:41:26.079Z,999.5
2022-08-27T13:43:26.082Z,999.5
2022-08-27T13:46:26.115Z,999.4
2022-08-27T13:49:26.114Z,999.4
2022-08-27T13:52:26.047Z,999.4
2022-08-27T13:54:26.071Z,999.4
2022-08-27T13:56:26.095Z,999.4
2022-08-27T13:59:26.087Z,999.4
2022-08-27T14:01:26.121Z,999.4
2022-08-27T14:04:26.078Z,999.3
2022-08-27T14:07:26.053Z,999.3
2022-08-27T14:09:26.081Z,999.3
2022-08-27T14:11:26.078Z,999.3
2022-08-27T14:13:26.068Z,999.3
2022-08-27T14:16:26.171Z,999.4
2022-08-27T14:18:37.065Z,999.4
2022-08-27T14:21:26.061Z,999.4
2022-08-27T14:23:26.063Z,999.4
2022-08-27T14:26:26.079Z,999.4
2022-08-27T14:29:26.181Z,999.4
2022-08-27T14:31:26.217Z,999.4
2022-08-27T14:34:26.068Z,999.4
2022-08-27T14:36:33.313Z,999.4
2022-08-27T14:39:26.665Z,999.3
2022-08-27T14:41:26.104Z,999.3
2022-08-27T14:44:26.108Z,999.3
2022-08-27T14:47:26.367Z,999.3
2022-08-27T14:50:26.084Z,999.3
2022-08-27T14:53:26.070Z,999.4
2022-08-27T14:55:26.082Z,999.4
2022-08-27T14:58:26.116Z,999.3
2022-08-27T15:00:26.141Z,999.3
2022-08-27T15:03:26.073Z,999.4
2022-08-27T15:06:26.498Z,999.3
2022-08-27T15:08:29.306Z,999.4
2022-08-27T15:11:26.077Z,999.4
2022-08-27T15:14:26.156Z,999.3
2022-08-27T15:17:29.336Z,999.3
2022-08-27T15:19:26.110Z,999.4
2022-08-27T15:21:26.114Z,999.4
2022-08-27T15:24:26.132Z,999.4
2022-08-27T15:27:26.207Z,999.4
2022-08-27T15:30:26.121Z,999.4
2022-08-27T15:33:26.080Z,999.4
2022-08-27T15:35:26.111Z,999.4
2022-08-27T15:37:26.111Z,999.3
2022-08-27T15:39:26.149Z,999.3
2022-08-27T15:42:26.117Z,999.3
2022-08-27T15:44:26.120Z,999.3
2022-08-27T15:47:26.136Z,999.3
2022-08-27T15:50:26.099Z,999.3
2022-08-27T15:52:26.153Z,999.3
2022-08-27T15:55:26.133Z,999.2
2022-08-27T15:58:29.050Z,999.2
2022-08-27T16:00:26.126Z,999.3
2022-08-27T16:02:26.181Z,999.2
2022-08-27T16:05:26.135Z,999.2
2022-08-27T16:08:26.136Z,999.2
2022-08-27T16:11:26.125Z,999.2
2022-08-27T16:14:26.112Z,999.2
2022-08-27T16:16:26.196Z,999.2
2022-08-27T16:19:26.127Z,999.2
2022-08-27T16:21:26.297Z,999.3
2022-08-27T16:24:26.135Z,999.3
2022-08-27T16:27:26.136Z,999.3
2022-08-27T16:29:26.188Z,999.3
2022-08-27T16:32:26.149Z,999.3
2022-08-27T16:35:26.162Z,999.3
2022-08-27T16:38:26.090Z,999.3
2022-08-27T16:40:26.598Z,999.3
2022-08-27T16:43:26.175Z,999.4
2022-08-27T16:45:26.142Z,999.3
2022-08-27T16:48:26.118Z,999.4
2022-08-27T16:50:26.346Z,999.4
2022-08-27T16:53:26.180Z,999.4
2022-08-27T16:55:26.159Z,999.4
2022-08-27T16:57:26.473Z,999.4
2022-08-27T17:00:26.149Z,999.4
2022-08-27T17:03:26.221Z,999.4
2022-08-27T17:06:26.123Z,999.5
2022-08-27T17:08:26.894Z,999.5
2022-08-27T17:10:26.183Z,999.5
2022-08-27T17:12:26.462Z,999.4
2022-08-27T17:15:26.171Z,999.4
2022-08-27T17:17:26.180Z,999.4
2022-08-27T17:19:26.319Z,999.5
2022-08-27T17:22:26.180Z,999.4
2022-08-27T17:24:26.192Z,999.4
2022-08-27T17:27:26.188Z,999.5
2022-08-27T17:30:26.189Z,999.5
2022-08-27T17:32:26.194Z,999.5
2022-08-27T17:35:26.359Z,999.5
2022-08-27T17:38:26.151Z,999.5
2022-08-27T17:40:26.262Z,999.5
2022-08-27T17:43:26.167Z,999.6
2022-08-27T17:45:26.189Z,999.6
2022-08-27T17:48:26.848Z,999.6
2022-08-27T17:50:26.195Z,999.6
2022-08-27T17:53:26.182Z,999.7
2022-08-27T17:55:26.187Z,999.6
2022-08-27T17:57:26.167Z,999.6
2022-08-27T18:00:26.155Z,999.6
2022-08-27T18:02:26.176Z,999.6
2022-08-27T18:04:26.187Z,999.6
2022-08-27T18:07:26.195Z,999.6
2022-08-27T18:09:26.255Z,999.6
2022-08-27T18:12:26.171Z,999.6
2022-08-27T18:14:26.214Z,999.7
2022-08-27T18:17:26.174Z,999.7
2022-08-27T18:20:26.218Z,999.7
2022-08-27T18:22:26.246Z,999.8
2022-08-27T18:25:26.177Z,999.8
2022-08-27T18:28:26.582Z,999.9
2022-08-27T18:31:26.206Z,999.9
2022-08-27T18:33:26.155Z,1000
2022-08-27T18:36:26.187Z,1000
2022-08-27T18:39:26.154Z,1000
2022-08-27T18:42:26.163Z,1000.1
2022-08-27T18:44:26.153Z,1000.1
2022-08-27T18:46:26.243Z,1000.1
2022-08-27T18:48:26.178Z,1000.1
2022-08-27T18:51:26.160Z,1000.1
2022-08-27T18:53:26.158Z,1000.2
2022-08-27T18:56:26.177Z,1000.2
2022-08-27T18:59:25.551Z,1000.3
2022-08-27T19:02:24.337Z,1000.3
2022-08-27T19:04:24.228Z,1000.3
2022-08-27T19:06:24.538Z,1000.4
2022-08-27T19:09:24.489Z,1000.4
2022-08-27T19:12:25.065Z,1000.4
2022-08-27T19:15:24.200Z,1000.3
2022-08-27T19:17:24.237Z,1000.3
2022-08-27T19:20:24.224Z,1000.3
2022-08-27T19:22:24.228Z,1000.3
2022-08-27T19:24:24.246Z,1000.3
2022-08-27T19:27:25.010Z,1000.4
2022-08-27T19:33:24.244Z,1000.4
2022-08-27T19:36:25.944Z,1000.5
2022-08-27T19:39:24.244Z,1000.5
2022-08-27T19:42:24.222Z,1000.5
2022-08-27T19:45:24.801Z,1000.6
2022-08-27T19:47:24.914Z,1000.6
2022-08-27T19:50:24.240Z,1000.6
2022-08-27T19:52:25.065Z,1000.6
2022-08-27T19:55:24.210Z,1000.6
2022-08-27T19:57:24.721Z,1000.6
2022-08-27T20:01:23.374Z,1000.7
2022-08-27T20:03:24.241Z,1000.7
2022-08-27T20:06:24.415Z,1000.8
2022-08-27T20:09:24.219Z,1000.8
2022-08-27T20:11:24.817Z,1000.8
2022-08-27T20:14:56.833Z,1000.8
2022-08-27T20:17:24.872Z,1000.8
2022-08-27T20:20:24.252Z,1000.8
2022-08-27T20:22:24.854Z,1000.9
2022-08-27T20:25:24.250Z,1001
2022-08-27T20:28:38.706Z,1001
2022-08-27T20:30:24.809Z,1001
2022-08-27T20:33:23.291Z,1001
2022-08-27T20:35:24.251Z,1001.1
2022-08-27T20:37:25.181Z,1001.1
2022-08-27T20:40:24.343Z,1001.1
2022-08-27T20:43:24.295Z,1001.1
2022-08-27T20:46:24.283Z,1001.1
2022-08-27T20:48:24.616Z,1001.1
2022-08-27T20:51:24.246Z,1001.1
2022-08-27T20:53:25.014Z,1001.1
2022-08-27T20:58:24.278Z,1001.1
2022-08-27T21:01:25.348Z,1001.1
2022-08-27T21:04:24.827Z,1001.1
2022-08-27T21:08:24.494Z,1001.2
2022-08-27T21:10:25.001Z,1001.2
2022-08-27T21:13:25.027Z,1001.2
2022-08-27T21:16:24.347Z,1001.2
2022-08-27T21:18:29.445Z,1001.2
2022-08-27T21:20:24.953Z,1001.1
2022-08-27T21:23:24.279Z,1001.1
2022-08-27T21:26:24.285Z,1001.1
2022-08-27T21:29:24.285Z,1001.1
2022-08-27T21:31:24.323Z,1001.1
2022-08-27T21:37:24.303Z,1001.2
2022-08-27T21:39:24.534Z,1001.2
2022-08-27T21:42:24.766Z,1001.2
2022-08-27T21:45:24.829Z,1001.1
2022-08-27T21:48:24.602Z,1001.1
2022-08-27T21:50:24.845Z,1001.1
2022-08-27T21:53:24.240Z,1001.1
2022-08-27T21:55:24.460Z,1001.1
2022-08-27T21:57:24.893Z,1001.1
2022-08-27T22:00:24.305Z,1001.1
2022-08-27T22:02:39.601Z,1001.1
2022-08-27T22:05:25.151Z,1001.1
2022-08-27T22:09:24.297Z,1001.1
2022-08-27T22:11:24.624Z,1001.1
2022-08-27T22:14:25.099Z,1001.1
2022-08-27T22:17:24.980Z,1001.1
2022-08-27T22:20:24.311Z,1001
2022-08-27T22:22:24.399Z,1001.1
2022-08-27T22:24:24.594Z,1001
2022-08-27T22:27:25.205Z,1001
2022-08-27T22:30:25.168Z,1001
2022-08-27T22:33:24.294Z,1001
2022-08-27T22:35:24.730Z,1001
2022-08-27T22:38:24.913Z,1000.9
2022-08-27T22:41:23.381Z,1000.9
2022-08-27T22:43:24.289Z,1000.9
2022-08-27T22:45:25.390Z,1001
2022-08-27T22:47:24.509Z,1001
2022-08-27T22:50:24.366Z,1001
2022-08-27T22:53:24.302Z,1001
2022-08-27T22:56:24.480Z,1001
2022-08-27T22:59:23.416Z,1001
2022-08-27T23:01:30.867Z,1001
2022-08-27T23:04:34.843Z,1001
2022-08-27T23:07:27.392Z,1001
2022-08-27T23:09:24.879Z,1001
2022-08-27T23:12:24.309Z,1001.1
2022-08-27T23:14:24.663Z,1001.1
2022-08-27T23:17:24.785Z,1001
2022-08-27T23:20:24.681Z,1001.1
2022-08-27T23:23:26.796Z,1001.1
2022-08-27T23:26:24.399Z,1001.1
2022-08-27T23:28:24.998Z,1001.1
2022-08-27T23:31:24.819Z,1001.1
2022-08-27T23:33:25.177Z,1001.1
2022-08-27T23:36:24.338Z,1001.1
2022-08-27T23:39:24.343Z,1001.2
2022-08-27T23:41:24.403Z,1001.1
2022-08-27T23:43:24.784Z,1001.1
2022-08-27T23:46:23.450Z,1001.2
2022-08-27T23:48:24.342Z,1001.2
2022-08-27T23:51:24.307Z,1001.2
2022-08-27T23:53:25.148Z,1001.1
2022-08-27T23:56:26.623Z,1001.2
2022-08-27T23:58:24.333Z,1001.2
